Kaplan, Louisiana
Current Conditions -  °F | °C
As of 11:35 PM on Friday 19 Dec 2014 (Local Time) from KIYA Reporting Station
Moderate Rain Moderate Rain  
Wind Chill: 46°   Ceiling: 400
Heat Index: 50°   Visibility: 7mi
Dew Point: 49°   Wind: 9mph
Humidity: 98%   Direction: 360°N
Pressure: 30.09"   Gusts: NA
Location:  30°N, 92.28°W
Report Text: KIYA 200535Z AUTO 36008KT 7SM RA OVC004 10/10 A3009 RMK AO2 T00980095 TSNO
Loading
Personal Weather Stations






























Interactive Weather Map New forecast layout! Learn more

10-Day Weather Forecast

Advertisements
Track Severe Weather on mobile